createdAt,value
2023-05-11T00:02:06.021Z,100387.87
2023-05-11T00:04:33.219Z,100393.48
2023-05-11T00:07:00.878Z,100390.38
2023-05-11T00:09:28.536Z,100395.19
2023-05-11T00:11:55.762Z,100395.08
2023-05-11T00:14:22.768Z,100390.64
2023-05-11T00:16:49.775Z,100393.65
2023-05-11T00:19:17.205Z,100392.84
2023-05-11T00:21:44.222Z,100390.98
2023-05-11T00:24:11.889Z,100395.30
2023-05-11T00:26:38.918Z,100394.63
2023-05-11T00:29:06.341Z,100391.21
2023-05-11T00:31:33.798Z,100391.89
2023-05-11T00:34:01.106Z,100393.67
2023-05-11T00:36:28.362Z,100391.66
2023-05-11T00:38:55.664Z,100389.08
2023-05-11T00:41:23.251Z,100392.23
2023-05-11T00:43:50.628Z,100393.78
2023-05-11T00:46:18.050Z,100392.09
2023-05-11T00:48:45.147Z,100394.27
2023-05-11T00:51:12.400Z,100391.25
2023-05-11T00:53:39.477Z,100396.56
2023-05-11T00:56:06.977Z,100394.11
2023-05-11T00:58:33.981Z,100395.40
2023-05-11T01:01:01.117Z,100395.38
2023-05-11T01:03:28.199Z,100394.14
2023-05-11T01:06:12.291Z,100395.58
2023-05-11T01:08:46.965Z,100395.55
2023-05-11T01:11:38.059Z,100395.31
2023-05-11T01:14:09.279Z,100395.26
2023-05-11T01:16:37.500Z,100397.14
2023-05-11T01:19:11.786Z,100395.05
2023-05-11T01:21:39.078Z,100397.55
2023-05-11T01:24:27.634Z,100400.41
2023-05-11T01:27:03.858Z,100398.83
2023-05-11T01:29:34.155Z,100397.77
2023-05-11T01:32:01.253Z,100401.20
2023-05-11T01:34:30.776Z,100401.59
2023-05-11T01:36:59.220Z,100402.58
2023-05-11T01:39:50.154Z,100401.10
2023-05-11T01:42:20.302Z,100401.34
2023-05-11T01:44:47.431Z,100399.28
2023-05-11T01:47:14.550Z,100402.52
2023-05-11T01:49:41.554Z,100401.56
2023-05-11T01:52:09.109Z,100398.76
2023-05-11T01:54:36.366Z,100401.55
2023-05-11T01:57:03.465Z,100400.38
2023-05-11T01:59:30.415Z,100400.86
2023-05-11T02:01:58.098Z,100400.66
2023-05-11T02:04:25.488Z,100398.39
2023-05-11T02:06:53.384Z,100399.36
2023-05-11T02:09:20.477Z,100399.93
2023-05-11T02:11:47.901Z,100398.54
2023-05-11T02:14:18.040Z,100400.05
2023-05-11T02:16:45.214Z,100400.83
2023-05-11T02:19:12.621Z,100403.34
2023-05-11T02:21:39.929Z,100407.73
2023-05-11T02:24:07.186Z,100411.77
2023-05-11T02:26:34.340Z,100411.40
2023-05-11T02:29:01.999Z,100415.52
2023-05-11T02:31:30.075Z,100414.93
2023-05-11T02:34:00.760Z,100417.79
2023-05-11T02:36:28.911Z,100415.98
2023-05-11T02:39:02.773Z,100417.65
2023-05-11T02:41:30.281Z,100418.97
2023-05-11T02:44:00.510Z,100424.23
2023-05-11T02:46:29.850Z,100423.27
2023-05-11T02:49:01.247Z,100420.80
2023-05-11T02:51:37.761Z,100424.11
2023-05-11T02:54:07.268Z,100422.53
2023-05-11T02:56:35.533Z,100425.63
2023-05-11T02:59:03.006Z,100428.01
2023-05-11T03:01:30.856Z,100428.23
2023-05-11T03:03:58.683Z,100429.83
2023-05-11T03:06:27.071Z,100429.86
2023-05-11T03:08:54.516Z,100431.16
2023-05-11T03:11:21.559Z,100434.52
2023-05-11T03:13:50.266Z,100437.95
2023-05-11T03:16:19.590Z,100437.52
2023-05-11T03:18:49.421Z,100434.20
2023-05-11T03:21:18.044Z,100435.16
2023-05-11T03:23:45.099Z,100434.27
2023-05-11T03:26:12.328Z,100443.77
2023-05-11T03:28:40.964Z,100439.16
2023-05-11T03:31:08.328Z,100440.64
2023-05-11T03:33:35.635Z,100442.94
2023-05-11T03:36:03.472Z,100441.40
2023-05-11T03:38:31.012Z,100439.27
2023-05-11T03:40:58.377Z,100437.56
2023-05-11T03:43:27.219Z,100446.98
2023-05-11T03:45:55.797Z,100453.89
2023-05-11T03:48:22.977Z,100451.35
2023-05-11T03:50:51.484Z,100452.95
2023-05-11T03:53:18.536Z,100451.61
2023-05-11T03:55:45.785Z,100457.42
2023-05-11T03:58:12.860Z,100456.14
2023-05-11T04:00:40.711Z,100452.93
2023-05-11T04:03:11.000Z,100457.70
2023-05-11T04:05:38.447Z,100458.58
2023-05-11T04:08:08.858Z,100459.84
2023-05-11T04:10:36.048Z,100461.34
2023-05-11T04:13:04.092Z,100463.33
2023-05-11T04:15:31.162Z,100462.63
2023-05-11T04:17:58.184Z,100470.47
2023-05-11T04:20:25.423Z,100469.40
2023-05-11T04:22:52.623Z,100470.58
2023-05-11T04:25:19.602Z,100474.33
2023-05-11T04:27:46.590Z,100472.55
2023-05-11T04:30:13.701Z,100474.54
2023-05-11T04:32:41.289Z,100475.86
2023-05-11T04:35:10.031Z,100476.92
2023-05-11T04:37:38.540Z,100479.59
2023-05-11T04:40:08.096Z,100475.14
2023-05-11T04:42:40.210Z,100479.39
2023-05-11T04:45:11.620Z,100483.41
2023-05-11T04:47:38.580Z,100481.59
2023-05-11T04:50:07.467Z,100481.55
2023-05-11T04:52:35.685Z,100484.84
2023-05-11T04:55:02.938Z,100480.91
2023-05-11T04:57:30.341Z,100480.35
2023-05-11T04:59:57.684Z,100480.34
2023-05-11T05:02:24.806Z,100480.77
2023-05-11T05:04:52.003Z,100482.57
2023-05-11T05:07:18.977Z,100483.30
2023-05-11T05:09:46.288Z,100486.78
2023-05-11T05:12:15.210Z,100485.87
2023-05-11T05:14:43.352Z,100487.16
2023-05-11T05:17:10.418Z,100485.35
2023-05-11T05:19:38.173Z,100490.27
2023-05-11T05:22:05.697Z,100488.97
2023-05-11T05:24:33.296Z,100491.98
2023-05-11T05:27:00.658Z,100489.66
2023-05-11T05:29:27.796Z,100489.81
2023-05-11T05:31:54.830Z,100491.15
2023-05-11T05:34:23.412Z,100487.20
2023-05-11T05:36:50.454Z,100484.98
2023-05-11T05:39:17.488Z,100487.57
2023-05-11T05:41:44.794Z,100485.73
2023-05-11T05:44:12.713Z,100491.14
2023-05-11T05:46:40.091Z,100493.06
2023-05-11T05:49:07.585Z,100491.77
2023-05-11T05:51:37.138Z,100492.75
2023-05-11T05:54:04.192Z,100493.77
2023-05-11T05:56:32.853Z,100496.06
2023-05-11T05:59:00.272Z,100494.94
2023-05-11T06:01:27.834Z,100495.58
2023-05-11T06:03:56.558Z,100493.97
2023-05-11T06:06:24.976Z,100489.87
2023-05-11T06:08:51.964Z,100494.23
2023-05-11T06:11:19.158Z,100495.33
2023-05-11T06:13:46.406Z,100493.27
2023-05-11T06:16:13.521Z,100491.66
2023-05-11T06:18:40.584Z,100487.73
2023-05-11T06:21:07.774Z,100486.98
2023-05-11T06:23:35.959Z,100488.82
2023-05-11T06:26:03.184Z,100485.72
2023-05-11T06:28:31.565Z,100488.91
2023-05-11T06:31:03.993Z,100488.10
2023-05-11T06:33:33.937Z,100485.23
2023-05-11T06:36:08.079Z,100488.13
2023-05-11T06:38:36.000Z,100485.48
2023-05-11T06:41:03.155Z,100486.21
2023-05-11T06:43:30.433Z,100483.22
2023-05-11T06:45:59.184Z,100480.47
2023-05-11T06:48:29.940Z,100479.56
2023-05-11T06:50:59.052Z,100480.36
2023-05-11T06:53:26.348Z,100486.14
2023-05-11T06:55:54.924Z,100481.52
2023-05-11T06:58:22.047Z,100482.88
2023-05-11T07:00:49.199Z,100480.03
2023-05-11T07:05:44.038Z,100483.50
2023-05-11T07:08:11.270Z,100475.05
2023-05-11T07:10:38.270Z,100479.93
2023-05-11T07:13:05.965Z,100476.97
2023-05-11T07:15:33.022Z,100476.45
2023-05-11T07:18:01.608Z,100477.19
2023-05-11T07:20:28.872Z,100473.16
2023-05-11T07:22:59.525Z,100475.73
2023-05-11T07:25:26.731Z,100477.88
2023-05-11T07:27:53.793Z,100476.58
2023-05-11T07:30:22.679Z,100475.90
2023-05-11T07:32:50.116Z,100473.05
2023-05-11T07:35:17.518Z,100470.77
2023-05-11T07:37:44.686Z,100465.65
2023-05-11T07:40:12.716Z,100465.39
2023-05-11T07:42:39.791Z,100469.38
2023-05-11T07:45:07.529Z,100467.75
2023-05-11T07:47:36.771Z,100461.70
2023-05-11T07:50:05.013Z,100464.38
2023-05-11T07:52:32.011Z,100464.42
2023-05-11T07:54:59.078Z,100456.84
2023-05-11T07:57:26.229Z,100456.02
2023-05-11T07:59:53.297Z,100458.04
2023-05-11T08:02:20.470Z,100456.59
2023-05-11T08:04:47.536Z,100455.59
2023-05-11T08:07:14.906Z,100457.76
2023-05-11T08:09:41.881Z,100451.52
2023-05-11T08:12:09.594Z,100448.83
2023-05-11T08:14:37.826Z,100449.32
2023-05-11T08:17:05.872Z,100444.27
2023-05-11T08:19:32.914Z,100448.30
2023-05-11T08:22:01.218Z,100444.70
2023-05-11T08:24:28.228Z,100443.57
2023-05-11T08:26:55.501Z,100451.09
2023-05-11T08:29:22.543Z,100448.94
2023-05-11T08:31:50.022Z,100450.05
2023-05-11T08:34:20.055Z,100446.60
2023-05-11T08:36:47.879Z,100452.55
2023-05-11T08:39:21.566Z,100447.75
2023-05-11T08:42:00.641Z,100439.22
2023-05-11T08:44:27.763Z,100440.98
2023-05-11T08:47:08.571Z,100437.69
2023-05-11T08:49:38.552Z,100446.17
2023-05-11T08:52:07.724Z,100452.23
2023-05-11T08:54:34.953Z,100451.51
2023-05-11T08:57:02.550Z,100452.17
2023-05-11T08:59:29.979Z,100460.27
2023-05-11T09:01:57.459Z,100459.22
2023-05-11T09:04:24.484Z,100454.05
2023-05-11T09:06:51.457Z,100452.73
2023-05-11T09:09:18.870Z,100450.89
2023-05-11T09:11:46.201Z,100451.02
2023-05-11T09:14:13.490Z,100447.25
2023-05-11T09:16:40.541Z,100445.60
2023-05-11T09:19:08.161Z,100444.27
2023-05-11T09:21:35.293Z,100443.62
2023-05-11T09:24:02.542Z,100436.98
2023-05-11T09:26:32.669Z,100433.11
2023-05-11T09:31:46.867Z,100428.46
2023-05-11T09:34:21.068Z,100423.25
2023-05-11T09:36:52.772Z,100423.69
2023-05-11T09:39:41.816Z,100422.79
2023-05-11T09:42:18.997Z,100414.29
2023-05-11T09:44:46.306Z,100410.23
2023-05-11T09:47:17.793Z,100407.48
2023-05-11T09:49:46.155Z,100404.69
2023-05-11T09:52:14.499Z,100403.00
2023-05-11T09:54:49.384Z,100400.19
2023-05-11T09:57:27.293Z,100397.30
2023-05-11T09:59:54.564Z,100399.27
2023-05-11T10:02:26.496Z,100399.02
2023-05-11T10:04:54.962Z,100395.71
2023-05-11T10:07:29.620Z,100395.71
2023-05-11T10:10:01.679Z,100395.42
2023-05-11T10:12:29.108Z,100397.00
2023-05-11T10:15:04.841Z,100398.63
2023-05-11T10:17:32.564Z,100395.92
2023-05-11T10:20:00.229Z,100397.20
2023-05-11T10:22:29.083Z,100395.79
2023-05-11T10:24:59.672Z,100392.71
2023-05-11T10:27:26.782Z,100387.92
2023-05-11T10:29:54.213Z,100389.19
2023-05-11T10:32:21.505Z,100385.71
2023-05-11T10:34:50.456Z,100380.33
2023-05-11T10:37:17.894Z,100378.55
2023-05-11T10:39:47.841Z,100377.61
2023-05-11T10:42:45.705Z,100377.58
2023-05-11T10:45:26.777Z,100376.33
2023-05-11T10:48:42.020Z,100375.90
2023-05-11T10:51:47.767Z,100371.70
2023-05-11T10:54:20.952Z,100364.54
2023-05-11T10:56:50.896Z,100362.91
2023-05-11T10:59:34.340Z,100359.96
2023-05-11T11:02:02.768Z,100360.23
2023-05-11T11:04:47.466Z,100360.16
2023-05-11T11:07:18.742Z,100359.20
2023-05-11T11:09:54.531Z,100363.96
2023-05-11T11:12:22.770Z,100363.39
2023-05-11T11:14:58.850Z,100356.23
2023-05-11T11:17:29.198Z,100361.95
2023-05-11T11:19:57.691Z,100359.83
2023-05-11T11:22:47.251Z,100359.86
2023-05-11T11:25:15.979Z,100357.96
2023-05-11T11:27:49.718Z,100358.45
2023-05-11T11:30:20.725Z,100352.64
2023-05-11T11:32:48.536Z,100350.20
2023-05-11T11:35:34.493Z,100346.09
2023-05-11T11:38:02.729Z,100345.30
2023-05-11T11:40:50.646Z,100346.41
2023-05-11T11:43:28.539Z,100348.96
2023-05-11T11:46:00.485Z,100346.35
2023-05-11T11:48:42.571Z,100342.79
2023-05-11T11:51:13.354Z,100339.64
2023-05-11T11:53:44.690Z,100337.86
2023-05-11T11:56:14.836Z,100333.21
2023-05-11T11:58:41.974Z,100333.23
2023-05-11T12:01:10.244Z,100332.52
2023-05-11T12:03:37.743Z,100328.46
2023-05-11T12:06:05.855Z,100331.95
2023-05-11T12:08:32.869Z,100333.27
2023-05-11T12:11:00.469Z,100329.96
2023-05-11T12:13:27.852Z,100329.33
2023-05-11T12:16:15.569Z,100321.80
2023-05-11T12:18:43.497Z,100323.97
2023-05-11T12:21:19.143Z,100321.69
2023-05-11T12:23:56.880Z,100316.88
2023-05-11T12:26:25.032Z,100309.16
2023-05-11T12:28:52.526Z,100306.61
2023-05-11T12:31:19.552Z,100308.02
2023-05-11T12:33:50.332Z,100310.42
2023-05-11T12:36:18.085Z,100307.79
2023-05-11T12:38:46.252Z,100313.73
2023-05-11T12:41:22.028Z,100313.04
2023-05-11T12:43:56.402Z,100311.86
2023-05-11T12:46:23.719Z,100311.22
2023-05-11T12:48:51.335Z,100309.02
2023-05-11T12:51:50.708Z,100315.14
2023-05-11T12:54:31.322Z,100317.13
2023-05-11T12:56:58.886Z,100317.55
2023-05-11T12:59:30.198Z,100315.75
2023-05-11T13:02:16.950Z,100317.23
2023-05-11T13:04:44.616Z,100316.68
2023-05-11T13:07:12.525Z,100314.91
2023-05-11T13:09:40.164Z,100311.21
2023-05-11T13:12:17.583Z,100309.51
2023-05-11T13:14:48.919Z,100312.20
2023-05-11T13:17:37.079Z,100307.98
2023-05-11T13:20:21.267Z,100306.80
2023-05-11T13:22:48.746Z,100301.48
2023-05-11T13:25:17.314Z,100306.34
2023-05-11T13:27:44.657Z,100298.30
2023-05-11T13:30:12.124Z,100303.70
2023-05-11T13:32:39.395Z,100300.40
2023-05-11T13:35:06.951Z,100301.64
2023-05-11T13:37:33.965Z,100299.46
2023-05-11T13:40:01.030Z,100295.61
2023-05-11T13:42:28.803Z,100291.86
2023-05-11T13:44:56.012Z,100292.14
2023-05-11T13:47:24.242Z,100293.36
2023-05-11T13:49:51.533Z,100292.35
2023-05-11T13:52:18.881Z,100294.61
2023-05-11T13:54:45.871Z,100288.61
2023-05-11T13:57:13.521Z,100287.05
2023-05-11T13:59:40.715Z,100284.48
2023-05-11T14:02:07.978Z,100284.80
2023-05-11T14:04:35.060Z,100276.73
2023-05-11T14:07:02.018Z,100277.54
2023-05-11T14:09:30.941Z,100277.44
2023-05-11T14:11:58.060Z,100271.80
2023-05-11T14:14:25.243Z,100272.78
2023-05-11T14:16:52.438Z,100273.09
2023-05-11T14:19:19.779Z,100271.59
2023-05-11T14:21:47.082Z,100269.89
2023-05-11T14:24:14.146Z,100262.25
2023-05-11T14:26:41.749Z,100263.42
2023-05-11T14:29:08.819Z,100261.33
2023-05-11T14:31:36.613Z,100259.36
2023-05-11T14:34:04.499Z,100257.50
2023-05-11T14:36:32.143Z,100258.89
2023-05-11T14:38:59.153Z,100261.16
2023-05-11T14:41:26.242Z,100260.17
2023-05-11T14:43:53.325Z,100261.33
2023-05-11T14:46:21.756Z,100260.58
2023-05-11T14:48:48.960Z,100258.73
2023-05-11T14:51:16.084Z,100253.78
2023-05-11T14:53:43.135Z,100256.55
2023-05-11T14:56:10.203Z,100253.05
2023-05-11T14:58:37.744Z,100251.65
2023-05-11T15:01:05.252Z,100251.13
2023-05-11T15:03:32.382Z,100254.09
2023-05-11T15:05:59.936Z,100252.30
2023-05-11T15:08:30.461Z,100254.02
2023-05-11T15:10:58.476Z,100255.27
2023-05-11T15:13:25.720Z,100255.94
2023-05-11T15:15:53.164Z,100253.42
2023-05-11T15:18:20.525Z,100251.77
2023-05-11T15:20:47.881Z,100251.52
2023-05-11T15:23:17.208Z,100249.75
2023-05-11T15:25:47.321Z,100250.52
2023-05-11T15:28:14.964Z,100248.77
2023-05-11T15:30:42.343Z,100245.59
2023-05-11T15:33:10.283Z,100248.80
2023-05-11T15:35:38.103Z,100248.09
2023-05-11T15:38:05.313Z,100245.22
2023-05-11T15:40:32.887Z,100245.73
2023-05-11T15:43:00.565Z,100245.05
2023-05-11T15:45:29.019Z,100247.26
2023-05-11T15:47:56.233Z,100247.10
2023-05-11T15:50:23.471Z,100245.83
2023-05-11T15:52:50.888Z,100245.00
2023-05-11T15:55:18.047Z,100242.70
2023-05-11T15:57:45.043Z,100238.13
2023-05-11T16:00:13.999Z,100241.89
2023-05-11T16:02:42.888Z,100241.30
2023-05-11T16:05:10.286Z,100240.67
2023-05-11T16:07:37.412Z,100241.31
2023-05-11T16:10:04.896Z,100243.78
2023-05-11T16:12:32.080Z,100246.69
2023-05-11T16:14:59.016Z,100250.47
2023-05-11T16:17:26.550Z,100250.24
2023-05-11T16:19:53.753Z,100252.98
2023-05-11T16:22:20.753Z,100254.35
2023-05-11T16:24:48.091Z,100258.75
2023-05-11T16:27:15.158Z,100256.75
2023-05-11T16:29:42.442Z,100263.64
2023-05-11T16:32:09.621Z,100262.92
2023-05-11T16:34:36.668Z,100259.67
2023-05-11T16:37:03.869Z,100263.11
2023-05-11T16:39:30.919Z,100264.59
2023-05-11T16:41:58.344Z,100269.80
2023-05-11T16:44:25.354Z,100271.23
2023-05-11T16:46:52.873Z,100268.70
2023-05-11T16:49:20.564Z,100269.63
2023-05-11T16:51:47.595Z,100271.98
2023-05-11T16:54:15.217Z,100274.94
2023-05-11T16:56:42.934Z,100271.92
2023-05-11T16:59:10.803Z,100275.26
2023-05-11T17:01:38.256Z,100274.75
2023-05-11T17:04:05.417Z,100273.09
2023-05-11T17:06:33.086Z,100274.34
2023-05-11T17:09:00.155Z,100275.83
2023-05-11T17:11:27.138Z,100277.19
2023-05-11T17:13:54.166Z,100276.23
2023-05-11T17:16:21.391Z,100279.13
2023-05-11T17:18:48.678Z,100278.85
2023-05-11T17:21:17.017Z,100279.77
2023-05-11T17:23:45.254Z,100281.77
2023-05-11T17:26:12.916Z,100285.38
2023-05-11T17:28:40.112Z,100286.39
2023-05-11T17:31:08.871Z,100287.88
2023-05-11T17:33:36.337Z,100290.85
2023-05-11T17:36:04.256Z,100294.65
2023-05-11T17:38:31.512Z,100291.48
2023-05-11T17:40:59.561Z,100295.06
2023-05-11T17:43:26.817Z,100297.88
2023-05-11T17:45:54.130Z,100302.98
2023-05-11T17:48:21.181Z,100305.20
2023-05-11T17:50:48.303Z,100308.06
2023-05-11T17:53:15.551Z,100307.13
2023-05-11T17:55:43.067Z,100315.35
2023-05-11T17:58:10.195Z,100319.18
2023-05-11T18:00:37.780Z,100318.70
2023-05-11T18:03:05.765Z,100322.87
2023-05-11T18:05:44.805Z,100325.93
2023-05-11T18:08:14.696Z,100324.21
2023-05-11T18:10:42.080Z,100326.70
2023-05-11T18:13:09.227Z,100326.44
2023-05-11T18:15:36.384Z,100330.21
2023-05-11T18:18:03.664Z,100329.33
2023-05-11T18:20:31.048Z,100334.85
2023-05-11T18:22:58.320Z,100332.96
2023-05-11T18:25:28.016Z,100331.90
2023-05-11T18:27:55.218Z,100336.36
2023-05-11T18:30:22.440Z,100338.13
2023-05-11T18:32:49.716Z,100340.64
2023-05-11T18:35:18.618Z,100341.58
2023-05-11T18:37:45.983Z,100343.54
2023-05-11T18:40:13.236Z,100340.92
2023-05-11T18:42:40.186Z,100341.36
2023-05-11T18:45:08.265Z,100342.55
2023-05-11T18:47:35.761Z,100344.44
2023-05-11T18:50:03.643Z,100343.58
2023-05-11T18:52:31.018Z,100339.52
2023-05-11T18:54:58.632Z,100341.15
2023-05-11T18:57:25.835Z,100341.99
2023-05-11T18:59:53.126Z,100339.02
2023-05-11T19:02:20.427Z,100340.39
2023-05-11T19:04:47.558Z,100343.04
2023-05-11T19:07:14.933Z,100348.09
2023-05-11T19:09:42.704Z,100343.66
2023-05-11T19:12:09.905Z,100345.20
2023-05-11T19:14:37.721Z,100347.47
2023-05-11T19:17:05.389Z,100344.11
2023-05-11T19:21:53.486Z,100347.84
2023-05-11T19:24:20.666Z,100346.85
2023-05-11T19:26:58.611Z,100345.36
2023-05-11T19:29:33.297Z,100345.20
2023-05-11T19:32:02.162Z,100348.00
2023-05-11T19:34:29.289Z,100350.72
2023-05-11T19:36:58.698Z,100350.91
2023-05-11T19:39:25.956Z,100349.17
2023-05-11T19:41:52.881Z,100351.96
2023-05-11T19:44:20.149Z,100350.38
2023-05-11T19:46:47.520Z,100352.37
2023-05-11T19:49:15.305Z,100354.94
2023-05-11T19:51:44.932Z,100354.64
2023-05-11T19:54:11.984Z,100355.58
2023-05-11T19:56:53.405Z,100355.46
2023-05-11T19:59:22.392Z,100351.91
2023-05-11T20:01:49.555Z,100351.23
2023-05-11T20:04:17.159Z,100349.32
2023-05-11T20:06:44.425Z,100350.69
2023-05-11T20:09:12.080Z,100354.23
2023-05-11T20:11:39.177Z,100354.95
2023-05-11T20:14:06.309Z,100352.13
2023-05-11T20:16:33.384Z,100352.05
2023-05-11T20:19:00.735Z,100351.14
2023-05-11T20:21:28.401Z,100349.25
2023-05-11T20:23:56.610Z,100345.49
2023-05-11T20:26:23.602Z,100345.36
2023-05-11T20:28:50.606Z,100344.48
2023-05-11T20:31:17.909Z,100342.96
2023-05-11T20:36:15.281Z,100340.61
2023-05-11T20:38:42.359Z,100338.48
2023-05-11T20:41:10.337Z,100342.65
2023-05-11T20:43:38.048Z,100344.14
2023-05-11T20:46:05.867Z,100349.05
2023-05-11T20:48:40.693Z,100350.20
2023-05-11T20:51:09.323Z,100349.74
2023-05-11T20:53:36.357Z,100351.75
2023-05-11T20:56:03.694Z,100353.30
2023-05-11T20:58:31.840Z,100352.52
2023-05-11T21:00:59.207Z,100353.01
2023-05-11T21:03:26.796Z,100359.13
2023-05-11T21:05:54.049Z,100352.14
2023-05-11T21:08:21.323Z,100353.92
2023-05-11T21:10:48.503Z,100355.64
2023-05-11T21:13:16.108Z,100354.17
2023-05-11T21:15:43.068Z,100355.27
2023-05-11T21:18:10.410Z,100355.83
2023-05-11T21:20:37.805Z,100355.95
2023-05-11T21:23:04.940Z,100359.23
2023-05-11T21:25:32.004Z,100358.80
2023-05-11T21:28:01.209Z,100360.86
2023-05-11T21:30:28.453Z,100357.98
2023-05-11T21:32:55.738Z,100356.89
2023-05-11T21:35:22.866Z,100360.01
2023-05-11T21:37:50.172Z,100364.16
2023-05-11T21:40:18.269Z,100363.20
2023-05-11T21:42:45.814Z,100365.84
2023-05-11T21:45:13.358Z,100364.61
2023-05-11T21:47:40.511Z,100365.73
2023-05-11T21:50:08.867Z,100362.48
2023-05-11T21:52:37.135Z,100369.29
2023-05-11T21:55:04.920Z,100375.80
2023-05-11T21:57:32.136Z,100371.78
2023-05-11T21:59:59.456Z,100373.91
2023-05-11T22:02:27.318Z,100373.20
2023-05-11T22:04:54.354Z,100372.42
2023-05-11T22:07:21.406Z,100373.27
2023-05-11T22:09:48.529Z,100369.84
2023-05-11T22:12:15.628Z,100368.02
2023-05-11T22:14:42.974Z,100370.34
2023-05-11T22:17:11.074Z,100370.84
2023-05-11T22:19:38.249Z,100373.86
2023-05-11T22:22:05.554Z,100373.20
2023-05-11T22:24:32.554Z,100374.23
2023-05-11T22:26:59.954Z,100376.05
2023-05-11T22:29:27.256Z,100376.45
2023-05-11T22:31:54.317Z,100375.27
2023-05-11T22:34:21.766Z,100373.41
2023-05-11T22:36:48.684Z,100372.20
2023-05-11T22:39:15.670Z,100372.55
2023-05-11T22:41:42.655Z,100376.56
2023-05-11T22:44:09.705Z,100373.68
2023-05-11T22:46:37.265Z,100377.98
2023-05-11T22:49:04.672Z,100377.92
2023-05-11T22:51:31.935Z,100377.92
2023-05-11T22:53:59.082Z,100376.91
2023-05-11T22:56:26.184Z,100375.58
2023-05-11T22:58:55.103Z,100373.27
2023-05-11T23:01:22.091Z,100375.11
2023-05-11T23:03:49.248Z,100371.56
2023-05-11T23:06:16.515Z,100369.23
2023-05-11T23:08:43.480Z,100370.74
2023-05-11T23:11:10.558Z,100373.51
2023-05-11T23:13:38.471Z,100375.45
2023-05-11T23:16:06.242Z,100377.02
2023-05-11T23:18:33.482Z,100374.63
2023-05-11T23:21:00.739Z,100378.95
2023-05-11T23:23:27.854Z,100378.67
2023-05-11T23:25:55.115Z,100376.73
2023-05-11T23:28:22.262Z,100377.77
2023-05-11T23:30:49.181Z,100373.34
2023-05-11T23:33:16.182Z,100374.52
2023-05-11T23:35:43.693Z,100372.48
2023-05-11T23:38:10.637Z,100374.11
2023-05-11T23:40:38.758Z,100370.23
2023-05-11T23:43:05.779Z,100366.88
2023-05-11T23:45:32.839Z,100363.34
2023-05-11T23:48:00.316Z,100362.14
2023-05-11T23:50:27.636Z,100363.61
2023-05-11T23:52:55.249Z,100366.42
2023-05-11T23:55:24.440Z,100367.92
2023-05-11T23:57:51.450Z,100365.95
